Time;durP1;ratioP1;P1;durP2;ratioP2;P2;SDS_P1;SDS_P2;PMS_P1;PMS_P2;Temp;Humidity;BMP_temperature;BMP_pressure;BME280_temperature;BME280_humidity;BME280_pressure;Samples;Min_cycle;Max_cycle;Signal;HPM_P1;HPM_P2
2023/09/07 00:00:51;;;;;;;12.67;3.83;;;20.50;78.90;;;;;;5085263;28;20730;-61
2023/09/07 00:03:18;;;;;;;10.77;4.70;;;20.50;79.20;;;;;;5089795;28;20215;-61
2023/09/07 00:05:45;;;;;;;9.77;4.10;;;20.40;79.40;;;;;;5090042;28;20204;-62
2023/09/07 00:08:12;;;;;;;9.87;4.73;;;20.40;79.40;;;;;;5101311;28;20201;-61
2023/09/07 00:10:39;;;;;;;9.57;4.00;;;20.40;79.50;;;;;;5099594;28;20217;-61
2023/09/07 00:13:06;;;;;;;10.30;4.83;;;20.40;79.60;;;;;;5094517;28;20665;-61
2023/09/07 00:15:38;;;;;;;11.13;4.80;;;20.40;79.70;;;;;;5093629;28;20197;-62
2023/09/07 00:18:05;;;;;;;8.33;5.83;;;20.30;79.60;;;;;;5096354;28;20266;-61
2023/09/07 00:20:33;;;;;;;11.87;5.20;;;20.30;79.50;;;;;;5097421;28;20206;-61
2023/09/07 00:23:00;;;;;;;9.30;6.27;;;20.30;79.40;;;;;;5094872;28;20209;-61
2023/09/07 00:25:28;;;;;;;8.23;5.70;;;20.30;79.10;;;;;;5088876;28;20209;-61
2023/09/07 00:27:55;;;;;;;5.77;5.03;;;20.30;78.90;;;;;;5095718;28;20288;-62
2023/09/07 00:30:22;;;;;;;6.87;5.37;;;20.30;78.90;;;;;;5090070;28;20237;-62
2023/09/07 00:32:49;;;;;;;7.47;5.20;;;20.30;79.00;;;;;;5092699;28;20192;-62
2023/09/07 00:35:16;;;;;;;9.47;4.80;;;20.20;79.10;;;;;;5098662;28;20201;-62
2023/09/07 00:37:43;;;;;;;10.60;5.17;;;20.20;79.30;;;;;;5098149;28;20201;-62
2023/09/07 00:40:10;;;;;;;10.17;5.53;;;20.20;79.40;;;;;;5101364;28;20201;-62
2023/09/07 00:42:37;;;;;;;11.37;5.37;;;20.20;79.50;;;;;;5105696;28;20211;-62
2023/09/07 00:45:05;;;;;;;6.83;4.80;;;20.20;79.60;;;;;;5094713;28;20197;-62
2023/09/07 00:47:35;;;;;;;10.20;5.77;;;20.20;79.70;;;;;;5089153;28;20213;-62
2023/09/07 00:50:07;;;;;;;11.57;5.43;;;20.20;80.00;;;;;;5097005;28;20226;-62
2023/09/07 00:52:35;;;;;;;8.80;5.50;;;20.10;80.00;;;;;;5081394;28;20296;-62
2023/09/07 00:55:04;;;;;;;6.60;5.53;;;20.10;80.00;;;;;;5098525;28;20306;-62
2023/09/07 00:57:32;;;;;;;9.90;6.40;;;20.10;80.00;;;;;;5099354;28;20250;-61
2023/09/07 00:59:59;;;;;;;8.13;6.43;;;20.00;79.90;;;;;;5094169;28;20301;-61
2023/09/07 01:02:26;;;;;;;11.27;6.13;;;20.00;79.60;;;;;;5091365;28;20704;-60
2023/09/07 01:04:53;;;;;;;8.77;5.93;;;19.90;79.10;;;;;;5090731;28;20207;-62
2023/09/07 01:07:25;;;;;;;12.70;6.53;;;19.90;78.90;;;;;;5094535;28;20397;-62
2023/09/07 01:09:57;;;;;;;18.13;6.90;;;19.90;79.00;;;;;;5095959;28;20266;-62
2023/09/07 01:12:24;;;;;;;6.03;5.43;;;19.90;79.10;;;;;;5106207;27;20225;-62
2023/09/07 01:14:52;;;;;;;9.07;6.03;;;19.80;79.30;;;;;;5088671;28;20239;-63
2023/09/07 01:17:24;;;;;;;15.47;6.17;;;19.80;79.60;;;;;;5087329;28;20198;-61
2023/09/07 01:19:53;;;;;;;8.70;5.67;;;19.80;79.80;;;;;;5088903;28;20215;-61
2023/09/07 01:22:24;;;;;;;9.73;6.10;;;19.80;80.00;;;;;;5096951;28;20222;-62
2023/09/07 01:24:52;;;;;;;10.40;6.27;;;19.70;80.10;;;;;;5094616;28;20277;-61
2023/09/07 01:27:19;;;;;;;9.97;5.63;;;19.80;80.30;;;;;;5094018;28;20212;-61
2023/09/07 01:29:46;;;;;;;11.27;5.50;;;19.70;80.30;;;;;;5104621;28;20629;-61
2023/09/07 01:32:13;;;;;;;10.23;5.60;;;19.70;80.50;;;;;;5109181;28;20681;-61
2023/09/07 01:34:41;;;;;;;6.70;5.70;;;19.70;80.70;;;;;;5096968;28;20630;-61
2023/09/07 01:37:08;;;;;;;6.43;5.80;;;19.70;80.90;;;;;;5105888;28;20295;-61
2023/09/07 01:39:36;;;;;;;11.70;6.83;;;19.70;80.90;;;;;;5100570;28;20197;-61
2023/09/07 01:42:04;;;;;;;11.93;6.77;;;19.70;80.70;;;;;;5103442;28;20203;-61
2023/09/07 01:44:31;;;;;;;8.87;6.77;;;19.70;80.50;;;;;;5098748;28;20290;-61
2023/09/07 01:46:58;;;;;;;9.73;7.70;;;19.60;80.10;;;;;;5096185;28;20285;-61
2023/09/07 01:49:26;;;;;;;7.07;6.17;;;19.60;80.00;;;;;;5100265;28;20222;-61
2023/09/07 01:51:54;;;;;;;8.33;6.37;;;19.60;80.10;;;;;;5094607;28;20212;-62
2023/09/07 01:54:21;;;;;;;7.87;6.23;;;19.50;80.40;;;;;;5098176;28;20211;-61
2023/09/07 01:56:49;;;;;;;8.07;6.07;;;19.50;80.70;;;;;;5105174;28;20206;-61
2023/09/07 01:59:16;;;;;;;8.63;6.03;;;19.50;81.00;;;;;;5103371;28;20253;-61
2023/09/07 02:01:43;;;;;;;10.97;6.67;;;19.40;81.20;;;;;;5100507;28;20644;-61
2023/09/07 02:04:10;;;;;;;12.33;7.30;;;19.50;81.50;;;;;;5088536;28;20293;-61
2023/09/07 02:06:37;;;;;;;11.13;6.90;;;19.50;81.60;;;;;;5089194;28;20207;-61
2023/09/07 02:09:04;;;;;;;9.67;7.27;;;19.50;82.30;;;;;;5091862;28;20205;-61
2023/09/07 02:11:31;;;;;;;7.93;6.77;;;19.50;82.40;;;;;;5088137;28;20319;-61
2023/09/07 02:13:58;;;;;;;10.67;7.97;;;19.50;81.80;;;;;;5093922;28;20721;-62
2023/09/07 02:16:26;;;;;;;9.70;8.50;;;19.50;81.90;;;;;;5098835;28;20219;-62
2023/09/07 02:19:04;;;;;;;10.40;7.47;;;19.50;81.80;;;;;;5105677;28;20243;-61
2023/09/07 02:21:31;;;;;;;10.27;7.17;;;19.50;81.60;;;;;;5097094;28;20295;-61
2023/09/07 02:23:59;;;;;;;15.67;7.67;;;19.50;81.50;;;;;;5097196;28;20853;-61
2023/09/07 02:26:26;;;;;;;8.77;7.57;;;19.40;81.40;;;;;;5097321;28;20656;-61
2023/09/07 02:28:53;;;;;;;8.67;6.43;;;19.40;81.50;;;;;;5100949;28;20612;-62
2023/09/07 02:31:20;;;;;;;9.23;7.10;;;19.40;81.70;;;;;;5096043;28;20212;-62
2023/09/07 02:33:47;;;;;;;10.07;6.63;;;19.40;82.00;;;;;;5097527;28;20669;-62
2023/09/07 02:36:15;;;;;;;8.40;7.50;;;19.40;82.00;;;;;;5098186;28;20854;-61
2023/09/07 02:38:42;;;;;;;11.63;7.63;;;19.30;82.00;;;;;;5093995;28;20204;-62
2023/09/07 02:41:09;;;;;;;12.17;7.23;;;19.30;82.10;;;;;;5099632;28;20212;-62
2023/09/07 02:43:36;;;;;;;9.53;7.30;;;19.30;82.10;;;;;;5098407;28;20294;-62
2023/09/07 02:46:03;;;;;;;12.13;7.10;;;19.30;82.30;;;;;;5099438;28;20203;-61
2023/09/07 02:48:30;;;;;;;9.53;7.90;;;19.20;82.50;;;;;;5103197;28;20299;-61
2023/09/07 02:50:58;;;;;;;11.23;8.07;;;19.20;82.60;;;;;;5104264;28;20229;-62
2023/09/07 02:53:26;;;;;;;9.33;7.87;;;19.20;82.60;;;;;;5085961;28;20294;-62
2023/09/07 02:55:53;;;;;;;14.83;9.17;;;19.20;82.70;;;;;;5086815;28;20278;-62
2023/09/07 02:58:23;;;;;;;11.93;9.20;;;19.20;82.80;;;;;;5088954;28;20334;-61
2023/09/07 03:00:52;;;;;;;13.47;8.23;;;19.20;82.70;;;;;;5090840;28;20208;-61
2023/09/07 03:03:21;;;;;;;14.03;7.90;;;19.20;82.60;;;;;;5093939;28;20203;-61
2023/09/07 03:05:48;;;;;;;10.60;9.03;;;19.20;83.40;;;;;;5100574;28;20204;-61
2023/09/07 03:08:15;;;;;;;11.93;8.67;;;19.20;82.80;;;;;;5097496;28;20269;-62
2023/09/07 03:10:43;;;;;;;17.57;8.47;;;19.20;82.90;;;;;;5095357;28;20246;-62
2023/09/07 03:13:10;;;;;;;11.50;9.17;;;19.20;82.90;;;;;;5093580;28;20196;-61
2023/09/07 03:15:38;;;;;;;9.93;8.80;;;19.20;82.90;;;;;;5100273;28;20699;-61
2023/09/07 03:18:09;;;;;;;11.60;9.20;;;19.20;82.90;;;;;;5097399;28;20200;-61
2023/09/07 03:20:38;;;;;;;13.33;8.90;;;19.10;83.00;;;;;;5098517;28;20296;-62
2023/09/07 03:23:06;;;;;;;9.63;8.60;;;19.10;83.20;;;;;;5099147;28;20231;-62
2023/09/07 03:25:34;;;;;;;12.77;9.13;;;19.10;83.50;;;;;;5094373;28;20200;-62
2023/09/07 03:28:01;;;;;;;9.97;8.40;;;19.10;83.70;;;;;;5088536;28;20633;-61
2023/09/07 03:30:28;;;;;;;11.53;9.43;;;19.10;83.70;;;;;;5087665;28;20692;-61
2023/09/07 03:32:55;;;;;;;13.87;9.23;;;19.10;83.60;;;;;;5099630;28;20326;-62
2023/09/07 03:35:23;;;;;;;12.33;9.70;;;19.10;83.60;;;;;;5099469;28;20206;-61
2023/09/07 03:37:51;;;;;;;11.67;9.63;;;19.00;83.60;;;;;;5090025;28;20214;-61
2023/09/07 03:40:18;;;;;;;15.67;9.73;;;19.10;83.80;;;;;;5100569;28;20306;-61
2023/09/07 03:42:46;;;;;;;16.27;9.27;;;19.00;83.90;;;;;;5094737;28;20235;-61
2023/09/07 03:45:14;;;;;;;12.37;9.93;;;19.00;84.10;;;;;;5070616;28;20541;-61
2023/09/07 03:47:41;;;;;;;19.60;10.03;;;19.00;84.30;;;;;;5086829;28;20204;-61
2023/09/07 03:50:11;;;;;;;16.27;11.20;;;19.00;84.30;;;;;;5102128;28;20295;-60
2023/09/07 03:52:38;;;;;;;12.00;9.97;;;19.00;84.20;;;;;;5102787;28;20223;-61
2023/09/07 03:55:07;;;;;;;14.00;10.03;;;19.00;84.30;;;;;;5101584;28;20226;-62
2023/09/07 03:57:36;;;;;;;12.33;11.03;;;18.90;84.30;;;;;;5095283;28;20262;-61
2023/09/07 04:00:08;;;;;;;10.97;9.87;;;18.90;84.50;;;;;;5100911;28;20202;-61
2023/09/07 04:02:47;;;;;;;12.77;11.27;;;18.90;84.80;;;;;;5077099;28;20216;-61
2023/09/07 04:05:17;;;;;;;18.43;12.20;;;18.80;84.90;;;;;;5102602;28;20283;-61
2023/09/07 04:07:45;;;;;;;13.33;11.53;;;18.90;84.80;;;;;;5081078;28;20206;-62
2023/09/07 04:10:12;;;;;;;17.10;11.17;;;18.80;84.70;;;;;;5094936;28;20331;-62
2023/09/07 04:12:40;;;;;;;15.93;11.13;;;18.80;84.90;;;;;;5098464;28;20503;-62
2023/09/07 04:15:09;;;;;;;15.50;11.67;;;18.70;85.00;;;;;;5094389;28;20205;-61
2023/09/07 04:17:40;;;;;;;16.53;12.77;;;18.70;85.20;;;;;;5077562;28;20534;-62
2023/09/07 04:20:11;;;;;;;13.20;11.63;;;18.70;85.30;;;;;;5095304;28;20200;-62
2023/09/07 04:22:40;;;;;;;16.77;12.60;;;18.70;85.50;;;;;;5081333;28;20233;-62
2023/09/07 04:25:08;;;;;;;15.60;12.63;;;18.70;85.60;;;;;;5098803;28;20207;-62
2023/09/07 04:27:35;;;;;;;17.43;13.07;;;18.70;85.60;;;;;;5100616;28;20207;-62
2023/09/07 04:30:05;;;;;;;16.97;13.00;;;18.70;85.60;;;;;;5106196;28;20221;-61
2023/09/07 04:32:33;;;;;;;17.97;13.80;;;18.70;85.60;;;;;;5093362;28;20558;-62
2023/09/07 04:35:02;;;;;;;14.80;12.63;;;18.70;85.70;;;;;;5087339;28;20199;-61
2023/09/07 04:37:30;;;;;;;15.90;12.93;;;18.70;85.80;;;;;;5081389;28;20214;-64
2023/09/07 04:39:58;;;;;;;14.90;13.10;;;18.70;86.00;;;;;;5100839;28;20546;-62
2023/09/07 04:42:25;;;;;;;14.27;12.80;;;18.70;85.90;;;;;;5087320;28;20276;-61
2023/09/07 04:44:52;;;;;;;13.87;12.57;;;18.60;85.70;;;;;;5095768;28;20262;-62
2023/09/07 04:47:20;;;;;;;16.70;13.80;;;18.60;85.90;;;;;;5077844;28;20222;-62
2023/09/07 04:49:50;;;;;;;17.20;13.27;;;18.60;86.00;;;;;;5093530;28;20278;-62
2023/09/07 04:52:20;;;;;;;17.07;13.70;;;18.60;85.90;;;;;;5076810;28;20230;-61
2023/09/07 04:54:48;;;;;;;19.10;13.37;;;18.60;85.80;;;;;;5093827;28;20222;-62
2023/09/07 04:57:19;;;;;;;19.77;14.43;;;18.60;85.90;;;;;;5097474;28;20301;-62
2023/09/07 04:59:47;;;;;;;24.90;14.50;;;18.60;86.00;;;;;;5098484;28;20228;-62
2023/09/07 05:02:15;;;;;;;19.30;14.97;;;18.60;86.20;;;;;;5088685;28;20233;-61
2023/09/07 05:04:42;;;;;;;17.73;14.43;;;18.60;86.40;;;;;;5092609;28;20257;-62
2023/09/07 05:07:10;;;;;;;19.47;13.27;;;18.60;86.30;;;;;;5081599;28;20199;-62
2023/09/07 05:09:37;;;;;;;17.27;15.53;;;18.60;86.40;;;;;;5098303;28;20217;-62
2023/09/07 05:12:05;;;;;;;18.53;13.97;;;18.60;86.50;;;;;;5090495;28;20308;-62
2023/09/07 05:14:32;;;;;;;20.17;14.73;;;18.60;86.50;;;;;;5084673;28;20210;-62
2023/09/07 05:17:00;;;;;;;17.93;13.53;;;18.70;86.70;;;;;;5099631;28;20207;-62
2023/09/07 05:19:27;;;;;;;16.30;14.33;;;18.70;87.30;;;;;;5080418;28;20265;-62
2023/09/07 05:21:56;;;;;;;18.10;14.63;;;18.70;86.80;;;;;;5097100;28;20203;-62
2023/09/07 05:24:23;;;;;;;19.70;14.60;;;18.80;86.60;;;;;;5066545;28;20211;-62
2023/09/07 05:26:51;;;;;;;18.33;14.73;;;18.80;86.40;;;;;;5095336;28;20222;-62
2023/09/07 05:29:20;;;;;;;18.53;14.33;;;18.90;86.40;;;;;;5086196;28;20622;-62
2023/09/07 05:31:47;;;;;;;17.50;14.23;;;19.00;86.30;;;;;;5096150;28;20220;-62
2023/09/07 05:34:15;;;;;;;21.30;14.47;;;19.10;86.40;;;;;;5097106;28;20210;-62
2023/09/07 05:36:42;;;;;;;20.47;14.20;;;19.20;86.40;;;;;;5079014;28;20585;-62
2023/09/07 05:39:10;;;;;;;22.33;13.80;;;19.30;86.00;;;;;;5097433;28;20204;-62
2023/09/07 05:41:37;;;;;;;25.57;15.13;;;19.50;85.90;;;;;;5095660;28;20257;-62
2023/09/07 05:44:04;;;;;;;22.97;14.90;;;19.70;86.30;;;;;;5102968;28;20194;-61
2023/09/07 05:46:32;;;;;;;20.37;14.20;;;19.80;85.20;;;;;;5101750;28;20633;-62
2023/09/07 05:48:59;;;;;;;23.20;14.80;;;20.00;85.00;;;;;;5090357;28;20240;-61
2023/09/07 05:51:27;;;;;;;28.50;13.97;;;20.10;84.40;;;;;;5093835;28;20270;-61
2023/09/07 05:53:55;;;;;;;23.40;13.23;;;20.30;83.80;;;;;;5092175;28;20683;-62
2023/09/07 05:56:23;;;;;;;26.43;14.07;;;20.60;83.20;;;;;;5075603;28;20299;-61
2023/09/07 05:58:51;;;;;;;14.60;13.13;;;20.90;81.90;;;;;;5094314;28;20530;-61
2023/09/07 06:01:18;;;;;;;18.60;14.17;;;21.40;80.40;;;;;;5088178;28;20201;-62
2023/09/07 06:03:46;;;;;;;22.97;13.47;;;21.90;78.60;;;;;;5096126;28;20288;-62
2023/09/07 06:06:14;;;;;;;16.27;13.03;;;22.50;77.00;;;;;;5082681;28;20650;-62
2023/09/07 06:08:41;;;;;;;19.00;14.20;;;23.00;75.30;;;;;;5094585;28;20204;-62
2023/09/07 06:11:09;;;;;;;17.23;13.90;;;23.50;73.30;;;;;;5071875;28;20210;-62
2023/09/07 06:13:37;;;;;;;15.07;13.47;;;23.90;71.70;;;;;;5081731;28;20231;-62
2023/09/07 06:16:04;;;;;;;15.33;13.20;;;24.20;70.80;;;;;;5101144;28;20702;-62
2023/09/07 06:18:31;;;;;;;19.47;13.93;;;24.30;70.30;;;;;;5100503;28;20748;-61
2023/09/07 06:20:59;;;;;;;18.80;14.53;;;24.30;70.00;;;;;;5100544;28;20204;-62
2023/09/07 06:23:27;;;;;;;15.67;14.03;;;24.30;70.10;;;;;;5096168;28;20236;-62
2023/09/07 06:25:54;;;;;;;31.70;14.27;;;24.20;70.70;;;;;;5097095;28;20650;-62
2023/09/07 06:28:22;;;;;;;23.00;14.70;;;24.00;71.40;;;;;;5097823;28;20198;-62
2023/09/07 06:30:49;;;;;;;26.47;14.77;;;23.80;72.10;;;;;;5098998;28;20237;-62
2023/09/07 06:33:18;;;;;;;19.83;14.93;;;23.60;72.60;;;;;;5086213;28;20273;-62
2023/09/07 06:35:46;;;;;;;17.93;14.83;;;23.40;73.10;;;;;;5100901;28;20269;-62
2023/09/07 06:38:14;;;;;;;16.23;12.97;;;23.20;73.50;;;;;;5106572;28;20292;-61
2023/09/07 06:40:48;;;;;;;17.13;13.37;;;23.10;74.50;;;;;;5098163;28;20253;-61
2023/09/07 06:43:17;;;;;;;15.73;12.77;;;23.00;75.30;;;;;;5087071;28;20216;-62
2023/09/07 06:45:46;;;;;;;14.63;13.13;;;23.00;75.60;;;;;;5087473;28;20210;-61
2023/09/07 06:48:15;;;;;;;15.90;13.93;;;23.00;75.90;;;;;;5094368;28;20253;-62
2023/09/07 06:50:42;;;;;;;17.20;14.47;;;23.00;76.30;;;;;;5098438;28;20574;-62
2023/09/07 06:53:10;;;;;;;18.07;13.40;;;23.00;76.30;;;;;;5104447;28;20288;-62
2023/09/07 06:55:38;;;;;;;16.53;13.67;;;23.00;76.20;;;;;;5096949;28;20299;-62
2023/09/07 06:58:05;;;;;;;18.43;14.03;;;23.10;76.30;;;;;;5098382;28;20233;-61
2023/09/07 07:00:34;;;;;;;15.40;12.83;;;23.20;76.30;;;;;;5085471;28;21084;-62
2023/09/07 07:03:02;;;;;;;19.00;12.67;;;23.20;76.50;;;;;;5085411;28;20250;-61
2023/09/07 07:05:29;;;;;;;19.40;13.40;;;23.30;76.60;;;;;;5101451;28;20246;-62
2023/09/07 07:07:57;;;;;;;14.43;12.53;;;23.40;76.50;;;;;;5097293;28;20232;-62
2023/09/07 07:10:25;;;;;;;15.23;12.50;;;23.50;76.30;;;;;;5099284;28;20613;-62
2023/09/07 07:12:52;;;;;;;15.63;12.70;;;23.60;76.10;;;;;;5096727;28;20220;-62
2023/09/07 07:15:19;;;;;;;15.33;11.17;;;23.70;75.80;;;;;;5092047;28;20267;-62
2023/09/07 07:17:48;;;;;;;16.67;11.53;;;23.80;75.60;;;;;;5082692;28;20252;-62
2023/09/07 07:20:16;;;;;;;13.77;10.87;;;23.90;75.40;;;;;;5113565;27;20196;-62
2023/09/07 07:22:43;;;;;;;13.13;11.50;;;24.00;75.20;;;;;;5082908;28;20577;-62
2023/09/07 07:25:14;;;;;;;11.10;10.03;;;24.10;75.10;;;;;;5103897;28;20192;-62
2023/09/07 07:27:41;;;;;;;12.50;8.73;;;24.20;74.90;;;;;;5074773;28;20193;-62
2023/09/07 07:30:09;;;;;;;11.27;8.70;;;24.30;74.40;;;;;;5078443;28;20202;-62
2023/09/07 07:32:39;;;;;;;11.73;9.27;;;24.50;73.90;;;;;;5072748;28;20216;-62
2023/09/07 07:35:06;;;;;;;39.67;9.67;;;24.50;73.30;;;;;;5105773;28;20210;-62
2023/09/07 07:37:34;;;;;;;9.23;8.13;;;24.60;72.90;;;;;;5075892;28;20197;-62
2023/09/07 07:40:04;;;;;;;11.07;8.67;;;24.80;72.60;;;;;;5101575;28;20232;-62
2023/09/07 07:42:32;;;;;;;11.43;8.77;;;24.90;71.40;;;;;;5099436;28;20202;-62
2023/09/07 07:44:59;;;;;;;12.23;8.87;;;25.00;70.80;;;;;;5080778;28;20216;-61
2023/09/07 07:47:28;;;;;;;8.40;7.63;;;25.10;69.70;;;;;;5092579;28;20208;-62
2023/09/07 07:49:55;;;;;;;15.30;7.30;;;25.20;69.80;;;;;;5081221;28;20206;-61
2023/09/07 07:52:23;;;;;;;10.97;7.37;;;25.30;70.10;;;;;;5083011;28;20647;-62
2023/09/07 07:54:53;;;;;;;8.20;7.40;;;25.40;69.80;;;;;;5085472;28;20203;-62
2023/09/07 07:57:20;;;;;;;9.20;7.40;;;25.70;69.30;;;;;;5100295;28;20613;-62
2023/09/07 07:59:47;;;;;;;10.93;6.97;;;25.80;68.50;;;;;;5092417;28;20238;-62
2023/09/07 08:02:15;;;;;;;8.93;7.43;;;26.00;67.80;;;;;;5093965;28;20219;-62
2023/09/07 08:04:43;;;;;;;10.63;7.77;;;26.10;67.10;;;;;;5092637;28;20255;-62
2023/09/07 08:07:11;;;;;;;8.40;7.03;;;26.20;66.10;;;;;;5095700;28;20219;-62
2023/09/07 08:09:39;;;;;;;6.83;5.77;;;26.30;66.30;;;;;;5082085;28;20204;-61
2023/09/07 08:12:07;;;;;;;9.60;5.03;;;26.50;65.40;;;;;;5083298;28;20597;-62
2023/09/07 08:14:36;;;;;;;6.37;5.43;;;26.50;65.10;;;;;;5071414;28;20210;-62
2023/09/07 08:17:04;;;;;;;6.70;5.93;;;26.60;64.70;;;;;;5108995;28;20251;-62
2023/09/07 08:19:32;;;;;;;12.57;6.87;;;26.70;64.00;;;;;;5097200;28;20539;-62
2023/09/07 08:22:04;;;;;;;7.00;5.37;;;26.80;63.60;;;;;;5084809;28;20287;-62
2023/09/07 08:24:32;;;;;;;8.03;5.30;;;26.90;63.70;;;;;;5100519;28;20288;-62
2023/09/07 08:27:00;;;;;;;7.27;6.23;;;27.00;63.60;;;;;;5077140;28;20218;-61
2023/09/07 08:29:31;;;;;;;8.03;5.97;;;27.20;63.20;;;;;;5101293;28;20558;-62
2023/09/07 08:32:03;;;;;;;8.83;5.87;;;27.30;63.00;;;;;;5097797;28;20200;-62
2023/09/07 08:34:31;;;;;;;7.20;5.27;;;27.40;63.00;;;;;;5095658;28;20201;-62
2023/09/07 08:36:59;;;;;;;6.00;4.27;;;27.60;63.20;;;;;;5094000;28;20536;-62
2023/09/07 08:39:27;;;;;;;9.33;4.20;;;27.70;62.00;;;;;;5096573;28;20579;-62
2023/09/07 08:41:58;;;;;;;6.63;4.07;;;27.90;62.20;;;;;;5083826;28;20201;-62
2023/09/07 08:44:30;;;;;;;9.83;4.10;;;28.00;61.40;;;;;;5099690;28;20266;-61
2023/09/07 08:46:59;;;;;;;5.20;3.93;;;28.10;60.90;;;;;;5079901;28;20697;-62
2023/09/07 08:49:27;;;;;;;6.03;3.97;;;28.20;60.60;;;;;;5077237;28;20672;-61
2023/09/07 08:51:58;;;;;;;5.60;3.57;;;28.30;60.50;;;;;;5086113;28;20591;-62
2023/09/07 08:54:26;;;;;;;6.43;3.67;;;28.20;60.30;;;;;;5093227;28;20531;-61
2023/09/07 08:56:56;;;;;;;12.40;3.80;;;28.20;60.30;;;;;;5079044;28;20589;-62
2023/09/07 08:59:24;;;;;;;5.40;3.90;;;28.30;60.50;;;;;;5059283;28;20572;-62
2023/09/07 09:01:56;;;;;;;6.00;4.03;;;28.40;60.30;;;;;;5082913;28;20209;-62
2023/09/07 09:04:25;;;;;;;8.60;3.70;;;28.40;60.20;;;;;;5102618;28;20202;-61
2023/09/07 09:06:53;;;;;;;6.90;3.50;;;28.50;60.50;;;;;;5079120;28;20215;-61
2023/09/07 09:09:24;;;;;;;5.27;3.20;;;28.60;60.10;;;;;;5077195;28;20231;-60
2023/09/07 09:11:52;;;;;;;4.07;3.57;;;28.70;60.20;;;;;;5100541;28;20281;-61
2023/09/07 09:14:22;;;;;;;5.47;3.57;;;28.80;59.80;;;;;;5095792;28;20244;-62
2023/09/07 09:16:50;;;;;;;3.80;3.50;;;28.90;59.60;;;;;;5098955;28;20629;-61
2023/09/07 09:19:19;;;;;;;5.13;3.20;;;28.90;59.40;;;;;;5080510;28;20546;-61
2023/09/07 09:21:46;;;;;;;7.00;3.77;;;29.00;59.70;;;;;;5079274;28;20205;-61
2023/09/07 09:24:15;;;;;;;6.97;3.30;;;29.10;59.60;;;;;;5094991;28;20212;-61
2023/09/07 09:26:42;;;;;;;3.87;3.37;;;29.30;59.10;;;;;;5078019;28;20196;-61
2023/09/07 09:29:11;;;;;;;6.33;3.13;;;29.40;59.00;;;;;;5081308;28;20288;-62
2023/09/07 09:31:39;;;;;;;5.67;2.90;;;29.50;58.70;;;;;;5081393;28;20231;-61
2023/09/07 09:34:06;;;;;;;4.23;3.53;;;29.70;58.50;;;;;;5101681;28;20660;-61
2023/09/07 09:36:36;;;;;;;5.43;3.30;;;29.70;57.10;;;;;;5093498;28;20232;-61
2023/09/07 09:39:03;;;;;;;3.27;2.97;;;29.70;56.70;;;;;;5086722;28;20283;-61
2023/09/07 09:41:33;;;;;;;7.10;3.73;;;29.70;56.80;;;;;;5092884;28;20197;-61
2023/09/07 09:44:03;;;;;;;6.23;3.20;;;29.70;56.80;;;;;;5072248;28;20202;-59
2023/09/07 09:46:32;;;;;;;3.87;3.40;;;29.80;56.10;;;;;;5099160;28;20204;-62
2023/09/07 09:49:00;;;;;;;4.93;3.30;;;29.80;56.80;;;;;;5098787;28;20283;-60
2023/09/07 09:51:28;;;;;;;4.27;3.03;;;29.90;56.70;;;;;;5105604;28;20200;-59
2023/09/07 09:53:56;;;;;;;4.70;3.33;;;29.90;56.60;;;;;;5083164;28;20292;-60
2023/09/07 09:56:25;;;;;;;5.60;3.07;;;30.10;56.40;;;;;;5094624;28;20200;-60
2023/09/07 09:58:52;;;;;;;6.03;3.33;;;30.10;56.00;;;;;;5097951;28;20240;-60
2023/09/07 10:01:22;;;;;;;3.67;3.10;;;30.20;55.60;;;;;;5101133;28;20215;-60
2023/09/07 10:03:51;;;;;;;3.13;2.83;;;30.30;54.90;;;;;;5098376;28;20265;-60
2023/09/07 10:06:20;;;;;;;4.33;3.30;;;30.30;54.20;;;;;;5071865;28;20636;-60
2023/09/07 10:09:10;;;;;;;8.07;3.10;;;30.30;54.10;;;;;;5097818;28;20214;-59
2023/09/07 10:11:38;;;;;;;4.90;3.30;;;30.30;54.10;;;;;;5097287;28;20735;-60
2023/09/07 10:14:07;;;;;;;4.50;3.23;;;30.30;54.20;;;;;;5100409;28;20352;-60
2023/09/07 10:16:48;;;;;;;5.47;3.00;;;30.40;54.30;;;;;;5075844;28;20588;-60
2023/09/07 10:19:17;;;;;;;3.23;2.73;;;30.50;53.70;;;;;;5102061;28;20189;-60
2023/09/07 10:21:44;;;;;;;6.03;3.00;;;30.50;53.00;;;;;;5099307;28;20201;-60
2023/09/07 10:24:11;;;;;;;6.00;3.00;;;30.60;53.70;;;;;;5102701;28;20526;-59
2023/09/07 10:26:38;;;;;;;3.20;2.90;;;30.70;53.90;;;;;;5097247;28;20647;-60
2023/09/07 10:29:05;;;;;;;4.03;3.17;;;30.90;53.40;;;;;;5087847;28;20201;-59
2023/09/07 10:31:32;;;;;;;3.10;2.80;;;31.00;52.70;;;;;;5088612;28;20202;-61
2023/09/07 10:34:20;;;;;;;5.37;3.03;;;31.10;52.30;;;;;;5108973;28;20261;-61
2023/09/07 10:36:51;;;;;;;5.03;2.93;;;31.10;50.50;;;;;;5101361;28;20258;-60
2023/09/07 10:39:18;;;;;;;4.33;3.17;;;31.10;50.90;;;;;;5102156;28;20212;-60
2023/09/07 10:41:46;;;;;;;5.30;3.63;;;31.10;51.50;;;;;;5100267;28;20212;-61
2023/09/07 10:44:13;;;;;;;5.60;3.47;;;31.20;50.60;;;;;;5099813;28;20522;-61
2023/09/07 10:46:40;;;;;;;4.03;3.00;;;31.20;50.90;;;;;;5098103;28;20201;-61
2023/09/07 10:49:11;;;;;;;5.23;3.10;;;31.20;50.10;;;;;;5096670;28;20208;-60
2023/09/07 10:51:43;;;;;;;4.07;3.70;;;31.10;50.10;;;;;;5104007;28;20193;-60
2023/09/07 10:54:18;;;;;;;4.43;3.97;;;31.00;50.70;;;;;;5093359;28;20220;-61
2023/09/07 10:56:46;;;;;;;5.50;3.70;;;30.90;50.90;;;;;;5090991;28;20205;-60
2023/09/07 10:59:14;;;;;;;3.80;3.50;;;30.90;51.10;;;;;;5092332;28;20638;-60
2023/09/07 11:01:41;;;;;;;4.00;3.60;;;31.00;51.40;;;;;;5092248;28;20194;-61
2023/09/07 11:04:11;;;;;;;5.50;2.90;;;31.20;51.40;;;;;;5094844;28;20221;-60
2023/09/07 11:06:40;;;;;;;3.97;3.47;;;31.30;51.00;;;;;;5094203;28;20706;-60
2023/09/07 11:09:10;;;;;;;5.87;3.63;;;31.40;50.90;;;;;;5097704;28;20275;-59
2023/09/07 11:11:38;;;;;;;5.60;3.33;;;31.40;51.10;;;;;;5100889;28;20277;-61
2023/09/07 11:14:06;;;;;;;7.20;3.23;;;31.50;50.80;;;;;;5102395;28;20297;-61
2023/09/07 11:16:34;;;;;;;3.60;3.30;;;31.70;50.30;;;;;;5096532;28;20219;-61
2023/09/07 11:19:05;;;;;;;6.13;3.27;;;31.70;49.80;;;;;;5101748;28;20530;-60
2023/09/07 11:21:35;;;;;;;3.60;3.30;;;31.70;50.40;;;;;;5101862;28;20206;-61
2023/09/07 11:24:06;;;;;;;3.87;3.37;;;31.80;50.00;;;;;;5103398;28;20259;-61
2023/09/07 11:26:46;;;;;;;6.50;3.40;;;31.60;49.90;;;;;;5101052;28;20208;-62
2023/09/07 11:29:15;;;;;;;6.77;3.50;;;31.50;50.00;;;;;;5095809;28;20578;-61
2023/09/07 11:31:44;;;;;;;4.30;3.43;;;31.50;50.30;;;;;;5098019;28;20208;-61
2023/09/07 11:34:12;;;;;;;5.03;3.10;;;31.50;50.00;;;;;;5097425;27;20223;-61
2023/09/07 11:36:41;;;;;;;4.23;2.93;;;31.40;50.20;;;;;;5098093;28;20643;-61
2023/09/07 11:39:14;;;;;;;3.33;2.93;;;31.40;49.90;;;;;;5097720;28;20198;-61
2023/09/07 11:41:43;;;;;;;4.13;3.10;;;31.50;49.40;;;;;;5104837;28;20201;-61
2023/09/07 11:44:11;;;;;;;4.13;3.10;;;31.50;49.00;;;;;;5096951;28;20193;-61
2023/09/07 11:46:39;;;;;;;6.20;2.97;;;31.60;49.00;;;;;;5088080;28;20256;-61
2023/09/07 11:49:08;;;;;;;3.40;2.60;;;31.70;48.80;;;;;;5091161;28;20209;-61
2023/09/07 11:51:36;;;;;;;3.73;2.93;;;31.80;48.90;;;;;;5090470;28;20632;-61
2023/09/07 11:54:04;;;;;;;3.13;2.83;;;32.00;49.10;;;;;;5090088;28;20213;-61
2023/09/07 11:56:31;;;;;;;3.13;2.83;;;32.00;48.70;;;;;;5095679;28;20653;-60
2023/09/07 11:58:59;;;;;;;5.40;2.97;;;31.80;48.20;;;;;;5096912;28;20669;-60
2023/09/07 12:01:27;;;;;;;4.73;3.53;;;31.50;48.30;;;;;;5100643;28;20204;-61
2023/09/07 12:03:54;;;;;;;3.73;3.40;;;31.30;49.00;;;;;;5101429;28;20197;-61
2023/09/07 12:06:23;;;;;;;2.77;2.57;;;31.10;49.10;;;;;;5099183;28;20542;-61
2023/09/07 12:09:00;;;;;;;2.90;2.60;;;30.90;47.60;;;;;;5104234;28;20593;-61
2023/09/07 12:11:27;;;;;;;3.37;2.53;;;30.80;48.30;;;;;;5100574;28;20197;-61
2023/09/07 12:13:54;;;;;;;3.13;2.83;;;31.00;49.30;;;;;;5101473;28;20727;-61
2023/09/07 12:16:21;;;;;;;5.63;2.60;;;31.00;48.50;;;;;;5097401;28;20515;-61
2023/09/07 12:18:49;;;;;;;5.37;2.83;;;31.00;48.20;;;;;;5096647;28;20193;-60
2023/09/07 12:21:16;;;;;;;3.00;2.80;;;31.10;47.90;;;;;;5094488;28;20197;-61
2023/09/07 12:23:43;;;;;;;5.87;2.93;;;31.20;47.80;;;;;;5089339;28;20213;-60
2023/09/07 12:26:10;;;;;;;4.33;3.00;;;31.30;48.00;;;;;;5097178;28;20205;-61
2023/09/07 12:28:37;;;;;;;4.63;3.23;;;31.40;48.60;;;;;;5100125;28;20224;-61
2023/09/07 12:31:04;;;;;;;8.00;2.93;;;31.60;47.90;;;;;;5102402;28;20198;-60
2023/09/07 12:33:32;;;;;;;3.03;2.73;;;31.70;47.80;;;;;;5099695;28;20301;-60
2023/09/07 12:36:00;;;;;;;4.30;2.60;;;31.80;47.10;;;;;;5089878;28;20495;-60
2023/09/07 12:38:29;;;;;;;4.70;2.67;;;31.80;47.40;;;;;;5089825;28;20584;-61
2023/09/07 12:40:56;;;;;;;2.33;2.13;;;31.80;45.60;;;;;;5094693;28;20193;-61
2023/09/07 12:43:24;;;;;;;5.40;3.23;;;31.60;45.40;;;;;;5089849;28;20668;-61